sensor_id;sensor_type;location;lat;lon;timestamp;P1;P2;P0
57289;PMS5003;43523;53.022;-1.178;2023-09-18T00:00:20;39;39;
57289;PMS5003;43523;53.022;-1.178;2023-09-18T00:01:23;41;38;
57289;PMS5003;43523;53.022;-1.178;2023-09-18T00:02:26;42;37;
57289;PMS5003;43523;53.022;-1.178;2023-09-18T00:03:28;46;43;
57289;PMS5003;43523;53.022;-1.178;2023-09-18T00:04:30;44;41;
57289;PMS5003;43523;53.022;-1.178;2023-09-18T00:05:33;40;40;
57289;PMS5003;43523;53.022;-1.178;2023-09-18T00:06:35;48;43;
57289;PMS5003;43523;53.022;-1.178;2023-09-18T00:07:38;50;39;
57289;PMS5003;43523;53.022;-1.178;2023-09-18T00:08:41;43;39;
57289;PMS5003;43523;53.022;-1.178;2023-09-18T00:09:44;46;42;
57289;PMS5003;43523;53.022;-1.178;2023-09-18T00:10:46;47;43;
57289;PMS5003;43523;53.022;-1.178;2023-09-18T00:11:50;43;38;
57289;PMS5003;43523;53.022;-1.178;2023-09-18T00:12:53;43;41;
57289;PMS5003;43523;53.022;-1.178;2023-09-18T00:13:57;45;43;
57289;PMS5003;43523;53.022;-1.178;2023-09-18T00:14:59;41;38;
57289;PMS5003;43523;53.022;-1.178;2023-09-18T00:16:02;48;43;
57289;PMS5003;43523;53.022;-1.178;2023-09-18T00:17:05;46;43;
57289;PMS5003;43523;53.022;-1.178;2023-09-18T00:18:07;44;41;
57289;PMS5003;43523;53.022;-1.178;2023-09-18T00:19:09;42;39;
57289;PMS5003;43523;53.022;-1.178;2023-09-18T00:20:12;41;39;
57289;PMS5003;43523;53.022;-1.178;2023-09-18T00:21:15;48;40;
57289;PMS5003;43523;53.022;-1.178;2023-09-18T00:22:17;45;41;
57289;PMS5003;43523;53.022;-1.178;2023-09-18T00:23:19;42;37;
57289;PMS5003;43523;53.022;-1.178;2023-09-18T00:24:20;43;41;
57289;PMS5003;43523;53.022;-1.178;2023-09-18T00:25:23;49;42;
57289;PMS5003;43523;53.022;-1.178;2023-09-18T00:26:25;42;40;
57289;PMS5003;43523;53.022;-1.178;2023-09-18T00:27:27;43;42;
57289;PMS5003;43523;53.022;-1.178;2023-09-18T00:28:29;40;37;
57289;PMS5003;43523;53.022;-1.178;2023-09-18T00:29:32;37;36;
57289;PMS5003;43523;53.022;-1.178;2023-09-18T00:30:34;43;37;
57289;PMS5003;43523;53.022;-1.178;2023-09-18T00:31:39;47;44;
57289;PMS5003;43523;53.022;-1.178;2023-09-18T00:32:42;44;43;
57289;PMS5003;43523;53.022;-1.178;2023-09-18T00:33:44;39;36;
57289;PMS5003;43523;53.022;-1.178;2023-09-18T00:34:48;38;37;
57289;PMS5003;43523;53.022;-1.178;2023-09-18T00:35:50;37;34;
57289;PMS5003;43523;53.022;-1.178;2023-09-18T00:36:53;43;37;
57289;PMS5003;43523;53.022;-1.178;2023-09-18T00:37:55;46;42;
57289;PMS5003;43523;53.022;-1.178;2023-09-18T00:38:58;44;38;
57289;PMS5003;43523;53.022;-1.178;2023-09-18T00:40:01;45;42;
57289;PMS5003;43523;53.022;-1.178;2023-09-18T00:41:03;41;35;
57289;PMS5003;43523;53.022;-1.178;2023-09-18T00:42:06;43;39;
57289;PMS5003;43523;53.022;-1.178;2023-09-18T00:43:08;40;40;
57289;PMS5003;43523;53.022;-1.178;2023-09-18T00:44:11;37;36;
57289;PMS5003;43523;53.022;-1.178;2023-09-18T00:45:13;43;39;
57289;PMS5003;43523;53.022;-1.178;2023-09-18T00:46:16;42;38;
57289;PMS5003;43523;53.022;-1.178;2023-09-18T00:47:19;41;37;
57289;PMS5003;43523;53.022;-1.178;2023-09-18T00:48:21;44;39;
57289;PMS5003;43523;53.022;-1.178;2023-09-18T00:49:24;47;42;
57289;PMS5003;43523;53.022;-1.178;2023-09-18T00:50:26;41;38;
57289;PMS5003;43523;53.022;-1.178;2023-09-18T00:51:28;44;40;
57289;PMS5003;43523;53.022;-1.178;2023-09-18T00:52:30;42;39;
57289;PMS5003;43523;53.022;-1.178;2023-09-18T00:53:34;42;38;
57289;PMS5003;43523;53.022;-1.178;2023-09-18T00:54:38;47;40;
57289;PMS5003;43523;53.022;-1.178;2023-09-18T00:55:42;48;43;
57289;PMS5003;43523;53.022;-1.178;2023-09-18T00:56:44;45;40;
57289;PMS5003;43523;53.022;-1.178;2023-09-18T00:57:47;49;44;
57289;PMS5003;43523;53.022;-1.178;2023-09-18T00:58:49;46;41;
57289;PMS5003;43523;53.022;-1.178;2023-09-18T00:59:51;46;44;
57289;PMS5003;43523;53.022;-1.178;2023-09-18T01:00:54;48;44;
57289;PMS5003;43523;53.022;-1.178;2023-09-18T01:01:57;39;37;
57289;PMS5003;43523;53.022;-1.178;2023-09-18T01:03:00;37;34;
57289;PMS5003;43523;53.022;-1.178;2023-09-18T01:04:04;45;39;
57289;PMS5003;43523;53.022;-1.178;2023-09-18T01:05:07;44;40;
57289;PMS5003;43523;53.022;-1.178;2023-09-18T01:06:10;47;43;
57289;PMS5003;43523;53.022;-1.178;2023-09-18T01:07:15;51;41;
57289;PMS5003;43523;53.022;-1.178;2023-09-18T01:08:22;52;50;
57289;PMS5003;43523;53.022;-1.178;2023-09-18T01:09:24;49;46;
57289;PMS5003;43523;53.022;-1.178;2023-09-18T01:10:28;43;37;
57289;PMS5003;43523;53.022;-1.178;2023-09-18T01:11:36;53;42;
57289;PMS5003;43523;53.022;-1.178;2023-09-18T01:12:51;47;41;
57289;PMS5003;43523;53.022;-1.178;2023-09-18T01:14:10;54;47;
57289;PMS5003;43523;53.022;-1.178;2023-09-18T01:15:21;47;41;
57289;PMS5003;43523;53.022;-1.178;2023-09-18T01:16:31;48;46;
57289;PMS5003;43523;53.022;-1.178;2023-09-18T01:17:38;44;39;
57289;PMS5003;43523;53.022;-1.178;2023-09-18T01:18:48;45;43;
57289;PMS5003;43523;53.022;-1.178;2023-09-18T01:19:51;48;44;
57289;PMS5003;43523;53.022;-1.178;2023-09-18T01:20:53;47;40;
57289;PMS5003;43523;53.022;-1.178;2023-09-18T01:21:55;45;41;
57289;PMS5003;43523;53.022;-1.178;2023-09-18T01:22:58;50;43;
57289;PMS5003;43523;53.022;-1.178;2023-09-18T01:24:00;52;46;
57289;PMS5003;43523;53.022;-1.178;2023-09-18T01:25:03;47;44;
57289;PMS5003;43523;53.022;-1.178;2023-09-18T01:26:06;48;43;
57289;PMS5003;43523;53.022;-1.178;2023-09-18T01:27:10;51;45;
57289;PMS5003;43523;53.022;-1.178;2023-09-18T01:28:14;44;39;
57289;PMS5003;43523;53.022;-1.178;2023-09-18T01:29:17;48;46;
57289;PMS5003;43523;53.022;-1.178;2023-09-18T01:30:20;48;41;
57289;PMS5003;43523;53.022;-1.178;2023-09-18T01:31:22;45;40;
57289;PMS5003;43523;53.022;-1.178;2023-09-18T01:32:25;47;43;
57289;PMS5003;43523;53.022;-1.178;2023-09-18T01:33:30;47;43;
57289;PMS5003;43523;53.022;-1.178;2023-09-18T01:34:33;44;43;
57289;PMS5003;43523;53.022;-1.178;2023-09-18T01:35:36;54;45;
57289;PMS5003;43523;53.022;-1.178;2023-09-18T01:36:39;49;43;
57289;PMS5003;43523;53.022;-1.178;2023-09-18T01:37:42;52;40;
57289;PMS5003;43523;53.022;-1.178;2023-09-18T01:38:46;58;53;
57289;PMS5003;43523;53.022;-1.178;2023-09-18T01:39:51;46;43;
57289;PMS5003;43523;53.022;-1.178;2023-09-18T01:40:55;49;46;
57289;PMS5003;43523;53.022;-1.178;2023-09-18T01:41:59;60;51;
57289;PMS5003;43523;53.022;-1.178;2023-09-18T01:43:02;45;43;
57289;PMS5003;43523;53.022;-1.178;2023-09-18T01:44:04;47;41;
57289;PMS5003;43523;53.022;-1.178;2023-09-18T01:45:08;50;43;
57289;PMS5003;43523;53.022;-1.178;2023-09-18T01:46:10;43;39;
57289;PMS5003;43523;53.022;-1.178;2023-09-18T01:47:14;53;44;
57289;PMS5003;43523;53.022;-1.178;2023-09-18T01:48:18;49;46;
57289;PMS5003;43523;53.022;-1.178;2023-09-18T01:49:26;51;44;
57289;PMS5003;43523;53.022;-1.178;2023-09-18T01:50:29;52;46;
57289;PMS5003;43523;53.022;-1.178;2023-09-18T01:51:32;46;41;
57289;PMS5003;43523;53.022;-1.178;2023-09-18T01:52:34;48;43;
57289;PMS5003;43523;53.022;-1.178;2023-09-18T01:53:36;48;41;
57289;PMS5003;43523;53.022;-1.178;2023-09-18T01:54:39;55;48;
57289;PMS5003;43523;53.022;-1.178;2023-09-18T01:55:42;37;36;
57289;PMS5003;43523;53.022;-1.178;2023-09-18T01:56:44;51;45;
57289;PMS5003;43523;53.022;-1.178;2023-09-18T01:57:47;48;44;
57289;PMS5003;43523;53.022;-1.178;2023-09-18T01:58:49;47;43;
57289;PMS5003;43523;53.022;-1.178;2023-09-18T01:59:51;47;42;
57289;PMS5003;43523;53.022;-1.178;2023-09-18T02:00:54;46;40;
57289;PMS5003;43523;53.022;-1.178;2023-09-18T02:02:01;53;46;
57289;PMS5003;43523;53.022;-1.178;2023-09-18T02:03:04;46;42;
57289;PMS5003;43523;53.022;-1.178;2023-09-18T02:04:07;44;42;
57289;PMS5003;43523;53.022;-1.178;2023-09-18T02:05:09;48;42;
57289;PMS5003;43523;53.022;-1.178;2023-09-18T02:06:11;50;44;
57289;PMS5003;43523;53.022;-1.178;2023-09-18T02:07:14;52;44;
57289;PMS5003;43523;53.022;-1.178;2023-09-18T02:08:16;51;42;
57289;PMS5003;43523;53.022;-1.178;2023-09-18T02:09:18;53;49;
57289;PMS5003;43523;53.022;-1.178;2023-09-18T02:10:21;45;43;
57289;PMS5003;43523;53.022;-1.178;2023-09-18T02:11:24;50;42;
57289;PMS5003;43523;53.022;-1.178;2023-09-18T02:12:26;48;42;
57289;PMS5003;43523;53.022;-1.178;2023-09-18T02:13:29;51;46;
57289;PMS5003;43523;53.022;-1.178;2023-09-18T02:14:31;49;45;
57289;PMS5003;43523;53.022;-1.178;2023-09-18T02:15:33;50;47;
57289;PMS5003;43523;53.022;-1.178;2023-09-18T02:16:38;49;43;
57289;PMS5003;43523;53.022;-1.178;2023-09-18T02:17:41;50;42;
57289;PMS5003;43523;53.022;-1.178;2023-09-18T02:18:44;48;42;
57289;PMS5003;43523;53.022;-1.178;2023-09-18T02:19:47;51;46;
57289;PMS5003;43523;53.022;-1.178;2023-09-18T02:20:49;58;50;
57289;PMS5003;43523;53.022;-1.178;2023-09-18T02:21:52;54;48;
57289;PMS5003;43523;53.022;-1.178;2023-09-18T02:23:02;53;46;
57289;PMS5003;43523;53.022;-1.178;2023-09-18T02:24:05;57;53;
57289;PMS5003;43523;53.022;-1.178;2023-09-18T02:25:09;54;45;
57289;PMS5003;43523;53.022;-1.178;2023-09-18T02:26:12;48;46;
57289;PMS5003;43523;53.022;-1.178;2023-09-18T02:27:14;56;45;
57289;PMS5003;43523;53.022;-1.178;2023-09-18T02:28:17;56;49;
57289;PMS5003;43523;53.022;-1.178;2023-09-18T02:29:19;53;49;
57289;PMS5003;43523;53.022;-1.178;2023-09-18T02:30:22;46;43;
57289;PMS5003;43523;53.022;-1.178;2023-09-18T02:31:24;55;47;
57289;PMS5003;43523;53.022;-1.178;2023-09-18T02:32:27;57;51;
57289;PMS5003;43523;53.022;-1.178;2023-09-18T02:33:29;52;45;
57289;PMS5003;43523;53.022;-1.178;2023-09-18T02:34:31;46;43;
57289;PMS5003;43523;53.022;-1.178;2023-09-18T02:35:34;49;42;
57289;PMS5003;43523;53.022;-1.178;2023-09-18T02:36:36;66;59;
57289;PMS5003;43523;53.022;-1.178;2023-09-18T02:37:39;58;49;
57289;PMS5003;43523;53.022;-1.178;2023-09-18T02:38:41;54;43;
57289;PMS5003;43523;53.022;-1.178;2023-09-18T02:39:44;51;46;
57289;PMS5003;43523;53.022;-1.178;2023-09-18T02:40:47;63;47;
57289;PMS5003;43523;53.022;-1.178;2023-09-18T02:41:49;58;49;
57289;PMS5003;43523;53.022;-1.178;2023-09-18T02:42:51;55;46;
57289;PMS5003;43523;53.022;-1.178;2023-09-18T02:43:53;61;55;
57289;PMS5003;43523;53.022;-1.178;2023-09-18T02:44:57;53;49;
57289;PMS5003;43523;53.022;-1.178;2023-09-18T02:46:00;63;51;
57289;PMS5003;43523;53.022;-1.178;2023-09-18T02:47:02;61;54;
57289;PMS5003;43523;53.022;-1.178;2023-09-18T02:48:05;57;53;
57289;PMS5003;43523;53.022;-1.178;2023-09-18T02:49:08;58;55;
57289;PMS5003;43523;53.022;-1.178;2023-09-18T02:50:11;55;50;
57289;PMS5003;43523;53.022;-1.178;2023-09-18T02:51:13;56;47;
57289;PMS5003;43523;53.022;-1.178;2023-09-18T02:52:16;58;50;
57289;PMS5003;43523;53.022;-1.178;2023-09-18T02:53:20;56;52;
57289;PMS5003;43523;53.022;-1.178;2023-09-18T02:54:24;58;52;
57289;PMS5003;43523;53.022;-1.178;2023-09-18T02:55:26;52;47;
57289;PMS5003;43523;53.022;-1.178;2023-09-18T02:56:28;45;42;
57289;PMS5003;43523;53.022;-1.178;2023-09-18T02:57:31;42;34;
57289;PMS5003;43523;53.022;-1.178;2023-09-18T02:58:34;43;35;
57289;PMS5003;43523;53.022;-1.178;2023-09-18T02:59:36;25;23;
57289;PMS5003;43523;53.022;-1.178;2023-09-18T03:00:40;23;22;
57289;PMS5003;43523;53.022;-1.178;2023-09-18T03:01:43;23;20;
57289;PMS5003;43523;53.022;-1.178;2023-09-18T03:02:45;15;14;
57289;PMS5003;43523;53.022;-1.178;2023-09-18T03:03:49;11;7;
57289;PMS5003;43523;53.022;-1.178;2023-09-18T03:04:51;14;11;
57289;PMS5003;43523;53.022;-1.178;2023-09-18T03:05:59;9;7;
57289;PMS5003;43523;53.022;-1.178;2023-09-18T03:07:02;3;3;
57289;PMS5003;43523;53.022;-1.178;2023-09-18T03:08:04;5;5;
57289;PMS5003;43523;53.022;-1.178;2023-09-18T03:09:06;4;4;
57289;PMS5003;43523;53.022;-1.178;2023-09-18T03:10:09;4;4;
57289;PMS5003;43523;53.022;-1.178;2023-09-18T03:11:12;5;5;
57289;PMS5003;43523;53.022;-1.178;2023-09-18T03:12:15;7;5;
57289;PMS5003;43523;53.022;-1.178;2023-09-18T03:13:17;5;4;
57289;PMS5003;43523;53.022;-1.178;2023-09-18T03:14:20;4;4;
57289;PMS5003;43523;53.022;-1.178;2023-09-18T03:15:22;6;6;
57289;PMS5003;43523;53.022;-1.178;2023-09-18T03:16:24;15;9;
57289;PMS5003;43523;53.022;-1.178;2023-09-18T03:17:26;21;17;
57289;PMS5003;43523;53.022;-1.178;2023-09-18T03:18:29;24;22;
57289;PMS5003;43523;53.022;-1.178;2023-09-18T03:19:31;27;23;
57289;PMS5003;43523;53.022;-1.178;2023-09-18T03:20:34;25;23;
57289;PMS5003;43523;53.022;-1.178;2023-09-18T03:21:37;24;22;
57289;PMS5003;43523;53.022;-1.178;2023-09-18T03:22:39;28;26;
57289;PMS5003;43523;53.022;-1.178;2023-09-18T03:23:41;40;33;
57289;PMS5003;43523;53.022;-1.178;2023-09-18T03:24:44;44;34;
57289;PMS5003;43523;53.022;-1.178;2023-09-18T03:25:47;40;35;
57289;PMS5003;43523;53.022;-1.178;2023-09-18T03:26:49;41;37;
57289;PMS5003;43523;53.022;-1.178;2023-09-18T03:27:51;44;43;
57289;PMS5003;43523;53.022;-1.178;2023-09-18T03:28:54;39;35;
57289;PMS5003;43523;53.022;-1.178;2023-09-18T03:29:57;22;19;
57289;PMS5003;43523;53.022;-1.178;2023-09-18T03:30:59;28;24;
57289;PMS5003;43523;53.022;-1.178;2023-09-18T03:32:02;24;24;
57289;PMS5003;43523;53.022;-1.178;2023-09-18T03:33:05;28;25;
57289;PMS5003;43523;53.022;-1.178;2023-09-18T03:34:07;36;31;
57289;PMS5003;43523;53.022;-1.178;2023-09-18T03:35:09;30;24;
57289;PMS5003;43523;53.022;-1.178;2023-09-18T03:36:12;16;14;
57289;PMS5003;43523;53.022;-1.178;2023-09-18T03:37:14;19;17;
57289;PMS5003;43523;53.022;-1.178;2023-09-18T03:38:17;13;12;
57289;PMS5003;43523;53.022;-1.178;2023-09-18T03:39:19;14;11;
57289;PMS5003;43523;53.022;-1.178;2023-09-18T03:40:22;14;14;
57289;PMS5003;43523;53.022;-1.178;2023-09-18T03:41:24;12;10;
57289;PMS5003;43523;53.022;-1.178;2023-09-18T03:42:26;13;11;
57289;PMS5003;43523;53.022;-1.178;2023-09-18T03:43:28;11;11;
57289;PMS5003;43523;53.022;-1.178;2023-09-18T03:44:31;15;13;
57289;PMS5003;43523;53.022;-1.178;2023-09-18T03:45:34;18;14;
57289;PMS5003;43523;53.022;-1.178;2023-09-18T03:46:36;16;14;
57289;PMS5003;43523;53.022;-1.178;2023-09-18T03:47:39;11;8;
57289;PMS5003;43523;53.022;-1.178;2023-09-18T03:48:43;13;11;
57289;PMS5003;43523;53.022;-1.178;2023-09-18T03:49:45;11;9;
57289;PMS5003;43523;53.022;-1.178;2023-09-18T03:50:49;12;10;
57289;PMS5003;43523;53.022;-1.178;2023-09-18T03:51:51;13;12;
57289;PMS5003;43523;53.022;-1.178;2023-09-18T03:52:54;10;9;
57289;PMS5003;43523;53.022;-1.178;2023-09-18T03:53:57;9;9;
57289;PMS5003;43523;53.022;-1.178;2023-09-18T03:54:59;6;6;
57289;PMS5003;43523;53.022;-1.178;2023-09-18T03:56:01;6;6;
57289;PMS5003;43523;53.022;-1.178;2023-09-18T03:57:04;6;6;
57289;PMS5003;43523;53.022;-1.178;2023-09-18T03:58:06;5;5;
57289;PMS5003;43523;53.022;-1.178;2023-09-18T03:59:09;6;6;
57289;PMS5003;43523;53.022;-1.178;2023-09-18T04:00:12;4;4;
57289;PMS5003;43523;53.022;-1.178;2023-09-18T04:01:15;4;3;
57289;PMS5003;43523;53.022;-1.178;2023-09-18T04:02:17;4;4;
57289;PMS5003;43523;53.022;-1.178;2023-09-18T04:03:19;1;1;
57289;PMS5003;43523;53.022;-1.178;2023-09-18T04:04:22;2;2;
57289;PMS5003;43523;53.022;-1.178;2023-09-18T04:05:24;7;5;
57289;PMS5003;43523;53.022;-1.178;2023-09-18T04:06:35;6;4;
57289;PMS5003;43523;53.022;-1.178;2023-09-18T04:07:38;2;2;
57289;PMS5003;43523;53.022;-1.178;2023-09-18T04:08:40;2;2;
57289;PMS5003;43523;53.022;-1.178;2023-09-18T04:09:43;4;3;
57289;PMS5003;43523;53.022;-1.178;2023-09-18T04:10:45;2;2;
57289;PMS5003;43523;53.022;-1.178;2023-09-18T04:11:48;2;2;
57289;PMS5003;43523;53.022;-1.178;2023-09-18T04:12:51;3;3;
57289;PMS5003;43523;53.022;-1.178;2023-09-18T04:13:54;5;4;
57289;PMS5003;43523;53.022;-1.178;2023-09-18T04:14:57;0;0;
57289;PMS5003;43523;53.022;-1.178;2023-09-18T04:15:59;2;2;
57289;PMS5003;43523;53.022;-1.178;2023-09-18T04:17:02;2;2;
57289;PMS5003;43523;53.022;-1.178;2023-09-18T04:18:05;3;2;
57289;PMS5003;43523;53.022;-1.178;2023-09-18T04:19:07;3;2;
57289;PMS5003;43523;53.022;-1.178;2023-09-18T04:20:10;0;0;
57289;PMS5003;43523;53.022;-1.178;2023-09-18T04:21:13;1;1;
57289;PMS5003;43523;53.022;-1.178;2023-09-18T04:22:15;0;0;
57289;PMS5003;43523;53.022;-1.178;2023-09-18T04:23:18;1;1;
57289;PMS5003;43523;53.022;-1.178;2023-09-18T04:24:22;2;2;
57289;PMS5003;43523;53.022;-1.178;2023-09-18T04:25:25;2;2;
57289;PMS5003;43523;53.022;-1.178;2023-09-18T04:26:27;4;1;
57289;PMS5003;43523;53.022;-1.178;2023-09-18T04:27:32;2;2;
57289;PMS5003;43523;53.022;-1.178;2023-09-18T04:28:34;2;2;
57289;PMS5003;43523;53.022;-1.178;2023-09-18T04:29:37;4;2;
57289;PMS5003;43523;53.022;-1.178;2023-09-18T04:30:39;2;2;
57289;PMS5003;43523;53.022;-1.178;2023-09-18T04:31:41;1;1;
57289;PMS5003;43523;53.022;-1.178;2023-09-18T04:32:44;1;1;
57289;PMS5003;43523;53.022;-1.178;2023-09-18T04:33:46;1;1;
57289;PMS5003;43523;53.022;-1.178;2023-09-18T04:34:48;1;1;
57289;PMS5003;43523;53.022;-1.178;2023-09-18T04:35:51;2;2;
57289;PMS5003;43523;53.022;-1.178;2023-09-18T04:36:53;1;1;
57289;PMS5003;43523;53.022;-1.178;2023-09-18T04:37:55;2;1;
57289;PMS5003;43523;53.022;-1.178;2023-09-18T04:39:00;1;1;
57289;PMS5003;43523;53.022;-1.178;2023-09-18T04:40:03;2;2;
57289;PMS5003;43523;53.022;-1.178;2023-09-18T04:41:07;2;2;
57289;PMS5003;43523;53.022;-1.178;2023-09-18T04:42:09;1;1;
57289;PMS5003;43523;53.022;-1.178;2023-09-18T04:43:11;1;1;
57289;PMS5003;43523;53.022;-1.178;2023-09-18T04:44:15;1;1;
57289;PMS5003;43523;53.022;-1.178;2023-09-18T04:45:17;1;1;
57289;PMS5003;43523;53.022;-1.178;2023-09-18T04:46:19;1;1;
57289;PMS5003;43523;53.022;-1.178;2023-09-18T04:47:21;1;1;
57289;PMS5003;43523;53.022;-1.178;2023-09-18T04:48:24;1;1;
57289;PMS5003;43523;53.022;-1.178;2023-09-18T04:49:26;3;2;
57289;PMS5003;43523;53.022;-1.178;2023-09-18T04:50:29;0;0;
57289;PMS5003;43523;53.022;-1.178;2023-09-18T04:51:31;2;2;
57289;PMS5003;43523;53.022;-1.178;2023-09-18T04:52:33;1;1;
57289;PMS5003;43523;53.022;-1.178;2023-09-18T04:53:36;0;0;
57289;PMS5003;43523;53.022;-1.178;2023-09-18T04:54:38;1;0;
57289;PMS5003;43523;53.022;-1.178;2023-09-18T04:55:41;1;1;
57289;PMS5003;43523;53.022;-1.178;2023-09-18T04:56:42;1;1;
57289;PMS5003;43523;53.022;-1.178;2023-09-18T04:57:45;2;1;
57289;PMS5003;43523;53.022;-1.178;2023-09-18T04:58:47;0;0;
57289;PMS5003;43523;53.022;-1.178;2023-09-18T04:59:50;2;0;
57289;PMS5003;43523;53.022;-1.178;2023-09-18T05:00:53;1;1;
57289;PMS5003;43523;53.022;-1.178;2023-09-18T05:01:57;2;2;
57289;PMS5003;43523;53.022;-1.178;2023-09-18T05:02:59;0;0;
57289;PMS5003;43523;53.022;-1.178;2023-09-18T05:04:01;2;2;
57289;PMS5003;43523;53.022;-1.178;2023-09-18T05:05:04;0;0;
57289;PMS5003;43523;53.022;-1.178;2023-09-18T05:06:07;3;2;
57289;PMS5003;43523;53.022;-1.178;2023-09-18T05:07:09;1;1;
57289;PMS5003;43523;53.022;-1.178;2023-09-18T05:08:12;1;1;
57289;PMS5003;43523;53.022;-1.178;2023-09-18T05:09:14;1;1;
57289;PMS5003;43523;53.022;-1.178;2023-09-18T05:10:17;0;0;
57289;PMS5003;43523;53.022;-1.178;2023-09-18T05:11:20;0;0;
57289;PMS5003;43523;53.022;-1.178;2023-09-18T05:12:24;1;1;
57289;PMS5003;43523;53.022;-1.178;2023-09-18T05:13:28;1;1;
57289;PMS5003;43523;53.022;-1.178;2023-09-18T05:14:30;1;1;
57289;PMS5003;43523;53.022;-1.178;2023-09-18T05:15:32;2;2;
57289;PMS5003;43523;53.022;-1.178;2023-09-18T05:16:35;1;1;
57289;PMS5003;43523;53.022;-1.178;2023-09-18T05:17:41;2;2;
57289;PMS5003;43523;53.022;-1.178;2023-09-18T05:18:45;0;0;
57289;PMS5003;43523;53.022;-1.178;2023-09-18T05:19:48;2;2;
57289;PMS5003;43523;53.022;-1.178;2023-09-18T05:20:51;1;1;
57289;PMS5003;43523;53.022;-1.178;2023-09-18T05:21:53;1;1;
57289;PMS5003;43523;53.022;-1.178;2023-09-18T05:22:56;3;1;
57289;PMS5003;43523;53.022;-1.178;2023-09-18T05:24:00;1;1;
57289;PMS5003;43523;53.022;-1.178;2023-09-18T05:25:02;1;1;
57289;PMS5003;43523;53.022;-1.178;2023-09-18T05:26:05;4;2;
57289;PMS5003;43523;53.022;-1.178;2023-09-18T05:27:07;1;1;
57289;PMS5003;43523;53.022;-1.178;2023-09-18T05:28:10;2;2;
57289;PMS5003;43523;53.022;-1.178;2023-09-18T05:29:12;2;2;
57289;PMS5003;43523;53.022;-1.178;2023-09-18T05:30:15;1;1;
57289;PMS5003;43523;53.022;-1.178;2023-09-18T05:31:20;4;2;
57289;PMS5003;43523;53.022;-1.178;2023-09-18T05:32:22;3;3;
57289;PMS5003;43523;53.022;-1.178;2023-09-18T05:33:25;1;1;
57289;PMS5003;43523;53.022;-1.178;2023-09-18T05:34:27;1;1;
57289;PMS5003;43523;53.022;-1.178;2023-09-18T05:35:30;3;3;
57289;PMS5003;43523;53.022;-1.178;2023-09-18T05:36:32;3;3;
57289;PMS5003;43523;53.022;-1.178;2023-09-18T05:37:34;2;1;
57289;PMS5003;43523;53.022;-1.178;2023-09-18T05:38:37;1;1;
57289;PMS5003;43523;53.022;-1.178;2023-09-18T05:39:39;4;1;
57289;PMS5003;43523;53.022;-1.178;2023-09-18T05:40:41;1;1;
57289;PMS5003;43523;53.022;-1.178;2023-09-18T05:41:43;2;2;
57289;PMS5003;43523;53.022;-1.178;2023-09-18T05:42:46;3;3;
57289;PMS5003;43523;53.022;-1.178;2023-09-18T05:43:50;1;1;
57289;PMS5003;43523;53.022;-1.178;2023-09-18T05:44:52;2;2;
57289;PMS5003;43523;53.022;-1.178;2023-09-18T05:45:55;4;2;
57289;PMS5003;43523;53.022;-1.178;2023-09-18T05:46:59;4;2;
57289;PMS5003;43523;53.022;-1.178;2023-09-18T05:48:03;2;2;
57289;PMS5003;43523;53.022;-1.178;2023-09-18T05:49:06;2;2;
57289;PMS5003;43523;53.022;-1.178;2023-09-18T05:50:09;3;3;
57289;PMS5003;43523;53.022;-1.178;2023-09-18T05:51:12;3;2;
57289;PMS5003;43523;53.022;-1.178;2023-09-18T05:52:15;4;2;
57289;PMS5003;43523;53.022;-1.178;2023-09-18T05:53:17;4;4;
57289;PMS5003;43523;53.022;-1.178;2023-09-18T05:54:19;6;4;
57289;PMS5003;43523;53.022;-1.178;2023-09-18T05:55:22;2;2;
57289;PMS5003;43523;53.022;-1.178;2023-09-18T05:56:24;5;3;
57289;PMS5003;43523;53.022;-1.178;2023-09-18T05:57:26;5;4;
57289;PMS5003;43523;53.022;-1.178;2023-09-18T05:58:29;3;3;
57289;PMS5003;43523;53.022;-1.178;2023-09-18T05:59:31;2;2;
57289;PMS5003;43523;53.022;-1.178;2023-09-18T06:00:33;5;4;
57289;PMS5003;43523;53.022;-1.178;2023-09-18T06:01:35;5;5;
57289;PMS5003;43523;53.022;-1.178;2023-09-18T06:02:38;4;4;
57289;PMS5003;43523;53.022;-1.178;2023-09-18T06:03:40;3;3;
57289;PMS5003;43523;53.022;-1.178;2023-09-18T06:04:42;3;3;
57289;PMS5003;43523;53.022;-1.178;2023-09-18T06:05:46;2;2;
57289;PMS5003;43523;53.022;-1.178;2023-09-18T06:06:50;3;3;
57289;PMS5003;43523;53.022;-1.178;2023-09-18T06:07:53;3;3;
57289;PMS5003;43523;53.022;-1.178;2023-09-18T06:08:57;4;4;
57289;PMS5003;43523;53.022;-1.178;2023-09-18T06:09:59;4;4;
57289;PMS5003;43523;53.022;-1.178;2023-09-18T06:11:02;4;4;
57289;PMS5003;43523;53.022;-1.178;2023-09-18T06:12:04;7;5;
57289;PMS5003;43523;53.022;-1.178;2023-09-18T06:13:07;8;7;
57289;PMS5003;43523;53.022;-1.178;2023-09-18T06:14:10;5;5;
57289;PMS5003;43523;53.022;-1.178;2023-09-18T06:15:12;4;4;
57289;PMS5003;43523;53.022;-1.178;2023-09-18T06:16:14;5;4;
57289;PMS5003;43523;53.022;-1.178;2023-09-18T06:17:16;9;7;
57289;PMS5003;43523;53.022;-1.178;2023-09-18T06:18:19;7;6;
57289;PMS5003;43523;53.022;-1.178;2023-09-18T06:19:21;5;5;
57289;PMS5003;43523;53.022;-1.178;2023-09-18T06:20:23;5;3;
57289;PMS5003;43523;53.022;-1.178;2023-09-18T06:21:26;7;7;
57289;PMS5003;43523;53.022;-1.178;2023-09-18T06:22:28;5;5;
57289;PMS5003;43523;53.022;-1.178;2023-09-18T06:23:30;7;7;
57289;PMS5003;43523;53.022;-1.178;2023-09-18T06:24:33;4;4;
57289;PMS5003;43523;53.022;-1.178;2023-09-18T06:25:36;4;4;
57289;PMS5003;43523;53.022;-1.178;2023-09-18T06:26:38;6;6;
57289;PMS5003;43523;53.022;-1.178;2023-09-18T06:27:41;8;8;
57289;PMS5003;43523;53.022;-1.178;2023-09-18T06:28:44;8;6;
57289;PMS5003;43523;53.022;-1.178;2023-09-18T06:29:47;6;5;
57289;PMS5003;43523;53.022;-1.178;2023-09-18T06:30:49;9;8;
57289;PMS5003;43523;53.022;-1.178;2023-09-18T06:31:52;9;6;
57289;PMS5003;43523;53.022;-1.178;2023-09-18T06:33:00;8;8;
57289;PMS5003;43523;53.022;-1.178;2023-09-18T06:34:03;6;6;
57289;PMS5003;43523;53.022;-1.178;2023-09-18T06:35:05;10;9;
57289;PMS5003;43523;53.022;-1.178;2023-09-18T06:36:08;5;5;
57289;PMS5003;43523;53.022;-1.178;2023-09-18T06:37:11;8;8;
57289;PMS5003;43523;53.022;-1.178;2023-09-18T06:38:13;9;7;
57289;PMS5003;43523;53.022;-1.178;2023-09-18T06:39:15;7;7;
57289;PMS5003;43523;53.022;-1.178;2023-09-18T06:40:18;7;7;
57289;PMS5003;43523;53.022;-1.178;2023-09-18T06:41:20;8;7;
57289;PMS5003;43523;53.022;-1.178;2023-09-18T06:42:22;8;8;
57289;PMS5003;43523;53.022;-1.178;2023-09-18T06:43:24;7;7;
57289;PMS5003;43523;53.022;-1.178;2023-09-18T06:44:27;12;11;
57289;PMS5003;43523;53.022;-1.178;2023-09-18T06:45:29;12;8;
57289;PMS5003;43523;53.022;-1.178;2023-09-18T06:46:31;11;9;
57289;PMS5003;43523;53.022;-1.178;2023-09-18T06:47:34;8;8;
57289;PMS5003;43523;53.022;-1.178;2023-09-18T06:48:36;14;11;
57289;PMS5003;43523;53.022;-1.178;2023-09-18T06:49:38;15;11;
57289;PMS5003;43523;53.022;-1.178;2023-09-18T06:50:41;12;12;
57289;PMS5003;43523;53.022;-1.178;2023-09-18T06:51:43;14;14;
57289;PMS5003;43523;53.022;-1.178;2023-09-18T06:52:46;16;14;
57289;PMS5003;43523;53.022;-1.178;2023-09-18T06:53:49;14;11;
57289;PMS5003;43523;53.022;-1.178;2023-09-18T06:54:51;12;10;
57289;PMS5003;43523;53.022;-1.178;2023-09-18T06:55:54;13;12;
57289;PMS5003;43523;53.022;-1.178;2023-09-18T06:56:57;16;14;